createdAt,value
2019-05-14T00:01:42.250Z,8.20
2019-05-14T00:04:11.757Z,8.20
2019-05-14T00:06:41.752Z,8.30
2019-05-14T00:09:12.278Z,8.30
2019-05-14T00:11:42.349Z,8.30
2019-05-14T00:14:12.296Z,8.20
2019-05-14T00:16:42.375Z,8.20
2019-05-14T00:19:12.377Z,8.20
2019-05-14T00:21:42.368Z,8.30
2019-05-14T00:24:12.457Z,8.20
2019-05-14T00:26:42.699Z,8.30
2019-05-14T00:29:12.710Z,8.20
2019-05-14T00:31:42.705Z,8.20
2019-05-14T00:34:12.706Z,8.20
2019-05-14T00:36:42.041Z,8.10
2019-05-14T00:39:11.461Z,8.10
2019-05-14T00:41:42.090Z,8.00
2019-05-14T00:44:13.519Z,8.00
2019-05-14T00:46:43.149Z,7.90
2019-05-14T00:49:12.501Z,7.90
2019-05-14T00:51:42.368Z,7.80
2019-05-14T00:54:11.739Z,7.70
2019-05-14T00:56:41.681Z,7.50
2019-05-14T00:59:11.793Z,7.50
2019-05-14T01:01:42.456Z,7.40
2019-05-14T01:04:12.287Z,7.40
2019-05-14T01:06:42.237Z,7.30
2019-05-14T01:09:12.861Z,7.30
2019-05-14T01:11:42.206Z,7.20
2019-05-14T01:14:12.243Z,7.30
2019-05-14T01:16:42.449Z,7.20
2019-05-14T01:19:12.570Z,7.20
2019-05-14T01:21:42.485Z,7.20
2019-05-14T01:24:12.548Z,7.10
2019-05-14T01:26:42.619Z,7.00
2019-05-14T01:29:12.146Z,7.00
2019-05-14T01:31:42.084Z,7.00
2019-05-14T01:34:11.433Z,7.00
2019-05-14T01:36:41.395Z,6.90
2019-05-14T01:39:12.034Z,6.90
2019-05-14T01:41:43.206Z,6.90
2019-05-14T01:44:12.542Z,6.70
2019-05-14T01:46:42.196Z,6.60
2019-05-14T01:49:12.262Z,6.60
2019-05-14T01:51:42.469Z,6.50
2019-05-14T01:54:12.416Z,6.40
2019-05-14T01:56:42.508Z,6.40
2019-05-14T01:59:12.495Z,6.30
2019-05-14T02:01:41.890Z,6.40
2019-05-14T02:04:11.810Z,6.40
2019-05-14T02:06:41.873Z,6.50
2019-05-14T02:09:11.337Z,6.60
2019-05-14T02:11:41.475Z,6.60
2019-05-14T02:14:11.835Z,6.60
2019-05-14T02:16:42.303Z,6.50
2019-05-14T02:19:12.291Z,6.60
2019-05-14T02:21:42.513Z,6.50
2019-05-14T02:24:12.038Z,6.50
2019-05-14T02:26:42.401Z,6.50
2019-05-14T02:29:12.718Z,6.40
2019-05-14T02:31:43.682Z,6.40
2019-05-14T02:34:13.018Z,6.40
2019-05-14T02:36:42.344Z,6.40
2019-05-14T02:39:11.677Z,6.40
2019-05-14T02:41:40.954Z,6.40
2019-05-14T02:44:10.304Z,6.40
2019-05-14T02:46:40.664Z,6.30
2019-05-14T02:49:10.866Z,6.40
2019-05-14T02:51:40.726Z,6.40
2019-05-14T02:54:10.331Z,6.40
2019-05-14T02:56:40.623Z,6.30
2019-05-14T02:59:10.535Z,6.30
2019-05-14T03:01:40.894Z,6.30
2019-05-14T03:04:10.939Z,6.30
2019-05-14T03:06:40.312Z,6.30
2019-05-14T03:09:10.050Z,6.30
2019-05-14T03:11:40.570Z,6.30
2019-05-14T03:14:11.041Z,6.20
2019-05-14T03:16:40.739Z,6.30
2019-05-14T03:19:10.825Z,6.20
2019-05-14T03:21:40.098Z,6.20
2019-05-14T03:24:09.804Z,6.20
2019-05-14T03:26:39.838Z,6.20
2019-05-14T03:29:10.284Z,6.20
2019-05-14T03:31:42.933Z,6.10
2019-05-14T03:34:13.594Z,6.20
2019-05-14T03:36:43.773Z,6.20
2019-05-14T03:39:13.445Z,6.20
2019-05-14T03:41:42.717Z,6.20
2019-05-14T03:44:12.058Z,6.10
2019-05-14T03:46:51.149Z,6.10
2019-05-14T03:49:12.388Z,6.20
2019-05-14T03:51:41.733Z,6.10
2019-05-14T03:54:12.942Z,6.00
2019-05-14T03:56:42.569Z,6.00
2019-05-14T03:59:11.944Z,5.90
2019-05-14T04:01:42.510Z,5.90
2019-05-14T04:04:11.782Z,5.80
2019-05-14T04:06:43.294Z,5.80
2019-05-14T04:09:14.970Z,5.80
2019-05-14T04:11:50.170Z,5.70
2019-05-14T04:14:20.834Z,5.60
2019-05-14T04:17:05.395Z,5.50
2019-05-14T04:19:24.952Z,5.60
2019-05-14T04:21:59.932Z,5.60
2019-05-14T04:24:31.664Z,5.70
2019-05-14T04:27:07.711Z,5.70
2019-05-14T04:29:35.443Z,5.60
2019-05-14T04:32:05.317Z,5.60
2019-05-14T04:34:35.209Z,5.60
2019-05-14T04:37:05.014Z,5.60
2019-05-14T04:39:34.410Z,5.70
2019-05-14T04:42:05.193Z,5.70
2019-05-14T04:44:34.537Z,5.70
2019-05-14T04:47:21.776Z,5.80
2019-05-14T04:49:34.884Z,5.80
2019-05-14T04:52:04.536Z,5.90
2019-05-14T04:54:33.823Z,5.90
2019-05-14T04:57:03.130Z,5.90
2019-05-14T04:59:32.522Z,5.90
2019-05-14T05:02:01.808Z,5.90
2019-05-14T05:04:31.212Z,6.00
2019-05-14T05:07:01.370Z,6.00
2019-05-14T05:09:30.747Z,6.00
2019-05-14T05:12:00.171Z,6.10
2019-05-14T05:14:29.948Z,6.20
2019-05-14T05:17:00.001Z,6.20
2019-05-14T05:19:30.088Z,6.30
2019-05-14T05:21:59.425Z,6.30
2019-05-14T05:24:28.936Z,6.30
2019-05-14T05:26:58.898Z,6.40
2019-05-14T05:29:28.731Z,6.40
2019-05-14T05:31:59.529Z,6.50
2019-05-14T05:34:29.773Z,6.50
2019-05-14T05:37:00.145Z,6.60
2019-05-14T05:39:29.474Z,6.60
2019-05-14T05:41:58.949Z,6.60
2019-05-14T05:44:28.899Z,6.60
2019-05-14T05:46:59.617Z,6.70
2019-05-14T05:49:29.721Z,6.80
2019-05-14T05:51:59.387Z,6.80
2019-05-14T05:54:29.445Z,6.90
2019-05-14T05:56:59.457Z,7.00
2019-05-14T05:59:29.429Z,7.00
2019-05-14T06:01:59.461Z,7.10
2019-05-14T06:04:29.197Z,7.20
2019-05-14T06:07:02.503Z,7.30
2019-05-14T06:09:30.372Z,7.40
2019-05-14T06:11:59.722Z,7.50
2019-05-14T06:14:29.296Z,7.80
2019-05-14T06:16:59.352Z,7.90
2019-05-14T06:19:29.123Z,8.10
2019-05-14T06:21:59.711Z,8.20
2019-05-14T06:24:29.560Z,8.30
2019-05-14T06:26:59.014Z,8.50
2019-05-14T06:29:29.032Z,8.60
2019-05-14T06:31:59.150Z,8.70
2019-05-14T06:34:29.171Z,8.90
2019-05-14T06:36:59.305Z,9.00
2019-05-14T06:39:29.286Z,9.10
2019-05-14T06:41:58.825Z,9.20
2019-05-14T06:44:29.543Z,9.30
2019-05-14T06:46:59.558Z,9.40
2019-05-14T06:49:29.217Z,9.50
2019-05-14T06:51:59.483Z,9.60
2019-05-14T06:54:29.638Z,9.70
2019-05-14T06:56:59.081Z,9.80
2019-05-14T06:59:28.893Z,9.80
2019-05-14T07:01:59.912Z,9.90
2019-05-14T07:04:29.349Z,9.90
2019-05-14T07:06:59.285Z,9.90
2019-05-14T07:09:29.077Z,9.80
2019-05-14T07:11:59.229Z,9.70
2019-05-14T07:14:28.571Z,9.70
2019-05-14T07:16:58.908Z,9.70
2019-05-14T07:19:29.548Z,9.90
2019-05-14T07:22:00.062Z,10.00
2019-05-14T07:24:29.389Z,10.00
2019-05-14T07:26:58.891Z,10.10
2019-05-14T07:29:29.394Z,10.10
2019-05-14T07:31:59.396Z,10.10
2019-05-14T07:34:28.849Z,10.10
2019-05-14T07:36:58.818Z,10.10
2019-05-14T07:39:29.235Z,10.20
2019-05-14T07:41:59.408Z,10.30
2019-05-14T07:44:29.796Z,10.40
2019-05-14T07:46:59.874Z,10.50
2019-05-14T07:49:29.307Z,10.70
2019-05-14T07:51:58.870Z,10.80
2019-05-14T07:54:28.787Z,11.00
2019-05-14T07:56:59.097Z,11.00
2019-05-14T07:59:29.069Z,11.10
2019-05-14T08:01:58.717Z,11.20
2019-05-14T08:04:28.961Z,11.20
2019-05-14T08:06:59.231Z,11.40
2019-05-14T08:09:28.561Z,11.50
2019-05-14T08:11:58.789Z,11.60
2019-05-14T08:14:30.184Z,11.60
2019-05-14T08:16:59.897Z,11.70
2019-05-14T08:19:31.508Z,11.90
2019-05-14T08:22:01.375Z,12.00
2019-05-14T08:24:30.709Z,12.10
2019-05-14T08:27:00.001Z,12.00
2019-05-14T08:29:29.485Z,12.00
2019-05-14T08:31:58.909Z,11.90
2019-05-14T08:34:32.114Z,11.80
2019-05-14T08:37:03.873Z,11.80
2019-05-14T08:39:30.773Z,11.70
2019-05-14T08:42:03.993Z,11.70
2019-05-14T08:44:31.058Z,11.80
2019-05-14T08:47:00.397Z,11.80
2019-05-14T08:49:39.233Z,11.90
2019-05-14T08:52:00.724Z,12.00
2019-05-14T08:54:30.022Z,12.00
2019-05-14T08:56:59.439Z,12.10
2019-05-14T08:59:28.855Z,12.10
2019-05-14T09:02:05.813Z,12.30
2019-05-14T09:04:32.241Z,12.20
2019-05-14T09:07:01.815Z,12.00
2019-05-14T09:09:31.101Z,11.90
2019-05-14T09:12:00.453Z,11.80
2019-05-14T09:14:29.794Z,11.80
2019-05-14T09:16:59.921Z,11.80
2019-05-14T09:19:30.103Z,11.80
2019-05-14T09:21:59.523Z,11.90
2019-05-14T09:24:29.491Z,11.90
2019-05-14T09:26:59.503Z,11.80
2019-05-14T09:29:29.806Z,11.60
2019-05-14T09:32:00.134Z,11.40
2019-05-14T09:34:29.506Z,11.30
2019-05-14T09:36:59.512Z,11.20
2019-05-14T09:39:29.651Z,11.20
2019-05-14T09:41:59.083Z,11.10
2019-05-14T09:44:29.362Z,11.10
2019-05-14T09:46:59.604Z,11.00
2019-05-14T09:49:30.734Z,11.00
2019-05-14T09:52:00.105Z,10.90
2019-05-14T09:54:29.630Z,10.80
2019-05-14T09:56:59.378Z,10.80
2019-05-14T09:59:29.429Z,10.80
2019-05-14T10:01:58.843Z,10.90
2019-05-14T10:04:28.342Z,10.90
2019-05-14T10:06:59.215Z,10.80
2019-05-14T10:09:29.125Z,10.70
2019-05-14T10:11:59.157Z,10.70
2019-05-14T10:14:29.783Z,10.60
2019-05-14T10:16:59.529Z,10.60
2019-05-14T10:19:29.698Z,10.70
2019-05-14T10:21:59.863Z,10.90
2019-05-14T10:24:29.357Z,11.00
2019-05-14T10:26:59.238Z,11.20
2019-05-14T10:29:28.848Z,11.50
2019-05-14T10:31:59.168Z,11.70
2019-05-14T10:34:29.325Z,11.80
2019-05-14T10:36:59.219Z,11.90
2019-05-14T10:39:29.956Z,12.00
2019-05-14T10:41:59.941Z,12.00
2019-05-14T10:44:29.513Z,12.00
2019-05-14T10:47:00.693Z,11.90
2019-05-14T10:49:30.189Z,11.70
2019-05-14T10:52:00.125Z,11.50
2019-05-14T10:54:29.576Z,11.40
2019-05-14T10:56:59.442Z,11.20
2019-05-14T10:59:29.666Z,11.20
2019-05-14T11:01:59.698Z,11.10
2019-05-14T11:04:29.101Z,11.10
2019-05-14T11:06:58.494Z,11.10
2019-05-14T11:09:28.582Z,11.20
2019-05-14T11:11:59.641Z,11.20
2019-05-14T11:14:31.971Z,11.40
2019-05-14T11:17:01.476Z,11.60
2019-05-14T11:19:30.897Z,12.00
2019-05-14T11:22:02.334Z,12.30
2019-05-14T11:24:31.671Z,12.70
2019-05-14T11:27:01.038Z,12.70
2019-05-14T11:29:30.446Z,12.80
2019-05-14T11:31:59.802Z,12.70
2019-05-14T11:34:29.079Z,12.70
2019-05-14T11:36:58.937Z,12.60
2019-05-14T11:39:29.152Z,12.40
2019-05-14T11:41:59.167Z,12.20
2019-05-14T11:44:29.237Z,11.90
2019-05-14T11:47:02.410Z,11.60
2019-05-14T11:49:29.673Z,11.30
2019-05-14T11:52:06.897Z,11.20
2019-05-14T11:54:30.033Z,11.10
2019-05-14T11:56:59.381Z,11.00
2019-05-14T11:59:28.677Z,11.00
2019-05-14T12:01:59.286Z,11.10
2019-05-14T12:04:29.047Z,11.10
2019-05-14T12:06:59.186Z,11.20
2019-05-14T12:09:29.321Z,11.30
2019-05-14T12:11:58.891Z,11.40
2019-05-14T12:14:28.822Z,11.50
2019-05-14T12:17:00.042Z,11.50
2019-05-14T12:19:29.168Z,11.70
2019-05-14T12:22:06.667Z,11.70
2019-05-14T12:24:29.527Z,11.60
2019-05-14T12:26:58.870Z,11.60
2019-05-14T12:29:29.388Z,11.60
2019-05-14T12:31:59.439Z,11.50
2019-05-14T12:34:29.693Z,11.40
2019-05-14T12:36:59.744Z,11.10
2019-05-14T12:39:29.492Z,11.00
2019-05-14T12:41:59.529Z,10.80
2019-05-14T12:44:29.314Z,10.80
2019-05-14T12:46:59.261Z,10.90
2019-05-14T12:49:28.546Z,11.00
2019-05-14T12:52:00.761Z,11.20
2019-05-14T12:54:29.941Z,11.40
2019-05-14T12:56:59.891Z,11.60
2019-05-14T12:59:29.239Z,11.70
2019-05-14T13:01:58.859Z,11.90
2019-05-14T13:04:28.749Z,12.00
2019-05-14T13:06:59.728Z,12.10
2019-05-14T13:09:29.220Z,12.20
2019-05-14T13:11:58.776Z,12.10
2019-05-14T13:14:28.691Z,12.10
2019-05-14T13:16:59.821Z,12.20
2019-05-14T13:19:29.056Z,12.20
2019-05-14T13:22:10.002Z,12.20
2019-05-14T13:24:29.457Z,12.10
2019-05-14T13:26:58.977Z,12.10
2019-05-14T13:29:29.132Z,11.80
2019-05-14T13:31:59.307Z,11.60
2019-05-14T13:34:29.403Z,11.30
2019-05-14T13:36:59.697Z,11.00
2019-05-14T13:39:29.705Z,10.80
2019-05-14T13:41:59.129Z,10.80
2019-05-14T13:44:29.263Z,10.90
2019-05-14T13:46:59.832Z,11.10
2019-05-14T13:49:30.111Z,11.30
2019-05-14T13:51:59.388Z,11.50
2019-05-14T13:54:31.828Z,11.40
2019-05-14T13:56:59.728Z,11.30
2019-05-14T13:59:29.865Z,11.10
2019-05-14T14:01:59.390Z,10.90
2019-05-14T14:04:29.257Z,10.80
2019-05-14T14:06:59.153Z,10.60
2019-05-14T14:09:31.452Z,10.50
2019-05-14T14:12:00.228Z,10.40
2019-05-14T14:14:29.517Z,10.30
2019-05-14T14:16:58.920Z,10.10
2019-05-14T14:19:28.465Z,10.10
2019-05-14T14:21:59.104Z,10.00
2019-05-14T14:24:29.240Z,10.00
2019-05-14T14:26:59.190Z,10.10
2019-05-14T14:29:28.670Z,10.10
2019-05-14T14:31:58.988Z,10.20
2019-05-14T14:34:29.201Z,10.30
2019-05-14T14:36:59.503Z,10.40
2019-05-14T14:39:29.529Z,10.50
2019-05-14T14:41:58.809Z,10.60
2019-05-14T14:44:29.193Z,10.80
2019-05-14T14:46:59.222Z,10.80
2019-05-14T14:49:28.560Z,10.90
2019-05-14T14:51:58.951Z,10.80
2019-05-14T14:54:29.029Z,10.70
2019-05-14T14:56:59.203Z,10.50
2019-05-14T14:59:30.433Z,10.30
2019-05-14T15:02:00.521Z,10.10
2019-05-14T15:04:29.993Z,9.90
2019-05-14T15:06:59.853Z,9.90
2019-05-14T15:09:29.990Z,9.90
2019-05-14T15:11:59.974Z,10.00
2019-05-14T15:14:30.125Z,10.10
2019-05-14T15:16:59.568Z,10.20
2019-05-14T15:19:29.747Z,10.30
2019-05-14T15:22:00.985Z,10.40
2019-05-14T15:24:30.262Z,10.40
2019-05-14T15:27:07.276Z,10.50
2019-05-14T15:29:30.858Z,10.50
2019-05-14T15:32:00.352Z,10.50
2019-05-14T15:34:29.849Z,10.50
2019-05-14T15:37:00.063Z,10.40
2019-05-14T15:39:30.441Z,10.30
2019-05-14T15:42:05.745Z,10.10
2019-05-14T15:44:47.337Z,10.10
2019-05-14T15:47:02.640Z,10.10
2019-05-14T15:49:32.006Z,10.20
2019-05-14T15:52:01.813Z,10.20
2019-05-14T15:54:42.965Z,10.20
2019-05-14T15:57:02.214Z,10.20
2019-05-14T15:59:31.514Z,10.30
2019-05-14T16:02:01.987Z,10.30
2019-05-14T16:04:31.273Z,10.30
2019-05-14T16:07:00.657Z,10.20
2019-05-14T16:09:30.005Z,10.10
2019-05-14T16:11:59.326Z,10.10
2019-05-14T16:14:30.032Z,10.00
2019-05-14T16:16:59.767Z,10.00
2019-05-14T16:19:29.180Z,9.90
2019-05-14T16:21:58.715Z,9.80
2019-05-14T16:24:28.808Z,9.70
2019-05-14T16:27:00.148Z,9.60
2019-05-14T16:29:41.332Z,9.60
2019-05-14T16:32:00.953Z,9.50
2019-05-14T16:34:30.281Z,9.60
2019-05-14T16:36:59.628Z,9.60
2019-05-14T16:39:28.976Z,9.60
2019-05-14T16:41:58.393Z,9.60
2019-05-14T16:44:28.350Z,9.70
2019-05-14T16:46:58.835Z,9.70
2019-05-14T16:49:29.930Z,9.70
2019-05-14T16:52:00.029Z,9.70
2019-05-14T16:54:29.839Z,9.60
2019-05-14T16:56:59.817Z,9.60
2019-05-14T16:59:29.734Z,9.60
2019-05-14T17:01:59.861Z,9.50
2019-05-14T17:04:29.472Z,9.50
2019-05-14T17:06:59.162Z,9.50
2019-05-14T17:09:29.113Z,9.40
2019-05-14T17:11:58.964Z,9.30
2019-05-14T17:14:29.432Z,9.20
2019-05-14T17:16:59.701Z,9.10
2019-05-14T17:19:29.935Z,9.00
2019-05-14T17:21:59.548Z,8.90
2019-05-14T17:24:29.530Z,8.80
2019-05-14T17:26:58.865Z,8.70
2019-05-14T17:29:28.614Z,8.70
2019-05-14T17:31:58.761Z,8.70
2019-05-14T17:34:29.317Z,8.70
2019-05-14T17:36:59.489Z,8.70
2019-05-14T17:39:29.364Z,8.70
2019-05-14T17:41:59.026Z,8.70
2019-05-14T17:44:28.329Z,8.70
2019-05-14T17:46:58.720Z,8.70
2019-05-14T17:49:28.929Z,8.70
2019-05-14T17:51:58.310Z,8.70
2019-05-14T17:54:28.394Z,8.70
2019-05-14T17:56:59.218Z,8.70
2019-05-14T17:59:29.937Z,8.70
2019-05-14T18:01:59.869Z,8.80
2019-05-14T18:04:29.203Z,8.70
2019-05-14T18:06:59.186Z,8.70
2019-05-14T18:09:30.232Z,8.70
2019-05-14T18:11:59.546Z,8.70
2019-05-14T18:14:28.875Z,8.60
2019-05-14T18:16:58.663Z,8.60
2019-05-14T18:19:28.989Z,8.60
2019-05-14T18:21:59.479Z,8.50
2019-05-14T18:24:29.694Z,8.50
2019-05-14T18:26:59.377Z,8.50
2019-05-14T18:29:29.659Z,8.40
2019-05-14T18:32:01.119Z,8.30
2019-05-14T18:34:32.135Z,8.30
2019-05-14T18:37:01.632Z,8.30
2019-05-14T18:39:31.018Z,8.20
2019-05-14T18:42:00.722Z,8.20
2019-05-14T18:44:30.683Z,8.20
2019-05-14T18:47:00.135Z,8.20
2019-05-14T18:49:29.461Z,8.20
2019-05-14T18:51:59.258Z,8.20
2019-05-14T18:54:29.500Z,8.20
2019-05-14T18:56:59.645Z,8.20
2019-05-14T18:59:30.867Z,8.20
2019-05-14T19:02:00.604Z,8.20
2019-05-14T19:04:29.916Z,8.10
2019-05-14T19:06:59.242Z,8.20
2019-05-14T19:09:29.215Z,8.20
2019-05-14T19:11:59.605Z,8.20
2019-05-14T19:14:30.217Z,8.30
2019-05-14T19:16:59.863Z,8.20
2019-05-14T19:19:29.488Z,8.10
2019-05-14T19:21:59.732Z,8.10
2019-05-14T19:24:29.386Z,8.10
2019-05-14T19:26:59.501Z,8.10
2019-05-14T19:29:29.926Z,8.10
2019-05-14T19:31:59.440Z,8.20
2019-05-14T19:34:29.023Z,8.20
2019-05-14T19:36:58.633Z,8.10
2019-05-14T19:39:28.289Z,8.20
2019-05-14T19:41:58.337Z,8.10
2019-05-14T19:44:29.673Z,8.10
2019-05-14T19:46:59.206Z,8.20
2019-05-14T19:49:29.241Z,8.10
2019-05-14T19:51:58.852Z,8.10
2019-05-14T19:54:29.338Z,8.10
2019-05-14T19:57:00.856Z,8.10
2019-05-14T19:59:30.343Z,8.00
2019-05-14T20:01:59.836Z,8.00
2019-05-14T20:04:29.474Z,8.00
2019-05-14T20:06:58.738Z,8.00
2019-05-14T20:09:28.164Z,7.90
2019-05-14T20:11:58.275Z,7.90
2019-05-14T20:14:28.708Z,8.00
2019-05-14T20:16:58.789Z,8.00
2019-05-14T20:19:28.593Z,8.00
2019-05-14T20:21:58.833Z,7.90
2019-05-14T20:24:28.762Z,7.80
2019-05-14T20:27:08.403Z,7.70
2019-05-14T20:29:29.199Z,7.70
2019-05-14T20:32:01.667Z,7.60
2019-05-14T20:34:29.577Z,7.60
2019-05-14T20:36:58.908Z,7.60
2019-05-14T20:39:29.459Z,7.60
2019-05-14T20:41:59.389Z,7.60
2019-05-14T20:44:28.771Z,7.60
2019-05-14T20:46:58.387Z,7.60
2019-05-14T20:49:28.427Z,7.60
2019-05-14T20:51:59.530Z,7.60
2019-05-14T20:54:29.489Z,7.60
2019-05-14T20:56:58.825Z,7.70
2019-05-14T20:59:28.297Z,7.70
2019-05-14T21:01:58.969Z,7.70
2019-05-14T21:04:28.933Z,7.80
2019-05-14T21:06:58.730Z,7.80
2019-05-14T21:09:28.834Z,7.80
2019-05-14T21:11:59.027Z,7.90
2019-05-14T21:14:28.394Z,7.90
2019-05-14T21:16:57.728Z,7.90
2019-05-14T21:19:28.319Z,7.80
2019-05-14T21:21:58.155Z,7.90
2019-05-14T21:24:29.522Z,7.90
2019-05-14T21:26:59.521Z,7.90
2019-05-14T21:29:30.622Z,7.80
2019-05-14T21:32:01.642Z,7.80
2019-05-14T21:34:30.925Z,7.80
2019-05-14T21:37:00.199Z,7.80
2019-05-14T21:39:29.525Z,7.80
2019-05-14T21:41:58.826Z,7.80
2019-05-14T21:44:28.482Z,7.80
2019-05-14T21:46:58.913Z,7.80
2019-05-14T21:49:28.808Z,7.70
2019-05-14T21:51:58.512Z,7.70
2019-05-14T21:54:31.037Z,7.70
2019-05-14T21:56:59.382Z,7.80
2019-05-14T21:59:28.738Z,7.80
2019-05-14T22:01:58.970Z,7.70
2019-05-14T22:04:29.047Z,7.70
2019-05-14T22:06:59.011Z,7.70
2019-05-14T22:09:28.565Z,7.70
2019-05-14T22:11:58.592Z,7.70
2019-05-14T22:14:28.310Z,7.60
2019-05-14T22:16:58.521Z,7.60
2019-05-14T22:19:28.723Z,7.60
2019-05-14T22:21:58.803Z,7.60
2019-05-14T22:24:28.863Z,7.60
2019-05-14T22:26:58.782Z,7.50
2019-05-14T22:29:28.630Z,7.50
2019-05-14T22:31:58.761Z,7.50
2019-05-14T22:34:28.583Z,7.50
2019-05-14T22:36:58.192Z,7.50
2019-05-14T22:39:29.115Z,7.50
2019-05-14T22:42:00.210Z,7.50
2019-05-14T22:44:29.629Z,7.50
2019-05-14T22:46:58.966Z,7.60
2019-05-14T22:49:28.518Z,7.50
2019-05-14T22:51:58.861Z,7.50
2019-05-14T22:54:29.241Z,7.50
2019-05-14T22:56:59.270Z,7.50
2019-05-14T22:59:28.696Z,7.50
2019-05-14T23:01:58.874Z,7.50
2019-05-14T23:04:29.061Z,7.50
2019-05-14T23:06:59.046Z,7.40
2019-05-14T23:09:28.422Z,7.40
2019-05-14T23:11:58.902Z,7.40
2019-05-14T23:14:29.002Z,7.30
2019-05-14T23:16:59.358Z,7.30
2019-05-14T23:19:28.727Z,7.30
2019-05-14T23:21:58.150Z,7.30
2019-05-14T23:24:28.606Z,7.30
2019-05-14T23:26:58.654Z,7.30
2019-05-14T23:29:28.848Z,7.30
2019-05-14T23:31:59.619Z,7.30
2019-05-14T23:34:28.938Z,7.30
2019-05-14T23:36:58.631Z,7.30
2019-05-14T23:39:29.593Z,7.30
2019-05-14T23:41:59.926Z,7.40
2019-05-14T23:44:29.416Z,7.40
2019-05-14T23:46:58.957Z,7.30
2019-05-14T23:49:28.917Z,7.40
2019-05-14T23:51:58.201Z,7.30
2019-05-14T23:54:29.142Z,7.30
2019-05-14T23:56:58.601Z,7.20
2019-05-14T23:59:29.373Z,7.20
